createdAt,value
2018-07-16T00:01:10.563Z,21.60
2018-07-16T00:03:40.532Z,21.40
2018-07-16T00:06:10.171Z,21.40
2018-07-16T00:08:39.639Z,21.20
2018-07-16T00:11:09.117Z,20.90
2018-07-16T00:13:38.287Z,21.00
2018-07-16T00:16:07.769Z,21.10
2018-07-16T00:18:37.563Z,21.50
2018-07-16T00:21:07.021Z,21.30
2018-07-16T00:23:36.717Z,21.10
2018-07-16T00:26:06.607Z,21.20
2018-07-16T00:28:36.124Z,21.50
2018-07-16T00:31:06.238Z,21.10
2018-07-16T00:33:36.881Z,20.90
2018-07-16T00:36:07.371Z,20.90
2018-07-16T00:38:37.051Z,20.40
2018-07-16T00:41:06.720Z,21.10
2018-07-16T00:43:36.142Z,21.40
2018-07-16T00:46:05.934Z,21.00
2018-07-16T00:48:35.251Z,21.20
2018-07-16T00:51:04.610Z,21.20
2018-07-16T00:53:34.369Z,21.40
2018-07-16T00:56:04.037Z,21.40
2018-07-16T00:58:33.267Z,21.20
2018-07-16T01:01:03.206Z,21.30
2018-07-16T01:03:33.029Z,21.40
2018-07-16T01:06:02.642Z,21.30
2018-07-16T01:08:32.666Z,20.90
2018-07-16T01:11:02.013Z,20.80
2018-07-16T01:13:31.732Z,20.70
2018-07-16T01:16:01.470Z,20.40
2018-07-16T01:18:31.872Z,20.60
2018-07-16T01:21:02.362Z,21.00
2018-07-16T01:23:31.896Z,21.20
2018-07-16T01:26:02.164Z,21.40
2018-07-16T01:28:31.506Z,21.50
2018-07-16T01:31:00.704Z,21.10
2018-07-16T01:33:30.617Z,20.60
2018-07-16T01:36:00.087Z,20.50
2018-07-16T01:38:29.835Z,20.50
2018-07-16T01:40:59.234Z,20.00
2018-07-16T01:43:28.879Z,19.50
2018-07-16T01:45:58.547Z,19.20
2018-07-16T01:50:56.994Z,19.00
2018-07-16T01:53:26.551Z,18.90
2018-07-16T01:55:56.117Z,18.70
2018-07-16T01:58:25.332Z,18.60
2018-07-16T02:00:59.060Z,18.60
2018-07-16T02:05:59.178Z,19.10
2018-07-16T02:08:29.290Z,19.30
2018-07-16T02:10:59.069Z,19.50
2018-07-16T02:13:28.742Z,19.80
2018-07-16T02:15:58.951Z,19.90
2018-07-16T02:18:28.557Z,20.00
2018-07-16T02:20:57.908Z,20.00
2018-07-16T02:23:27.130Z,19.60
2018-07-16T02:25:56.606Z,19.30
2018-07-16T02:28:25.752Z,19.10
2018-07-16T02:30:55.338Z,19.10
2018-07-16T02:33:24.731Z,19.40
2018-07-16T02:35:54.430Z,19.20
2018-07-16T02:38:24.070Z,19.30
2018-07-16T02:40:53.459Z,19.00
2018-07-16T02:43:23.070Z,19.00
2018-07-16T02:45:52.647Z,19.30
2018-07-16T02:48:22.036Z,19.60
2018-07-16T02:50:51.349Z,19.30
2018-07-16T02:53:20.730Z,19.50
2018-07-16T02:55:50.481Z,19.40
2018-07-16T02:58:19.681Z,19.40
2018-07-16T03:00:49.090Z,19.20
2018-07-16T03:03:18.275Z,18.90
2018-07-16T03:05:48.135Z,19.20
2018-07-16T03:08:17.501Z,19.30
2018-07-16T03:10:47.157Z,19.10
2018-07-16T03:13:16.620Z,19.00
2018-07-16T03:15:45.817Z,18.90
2018-07-16T03:18:15.112Z,18.80
2018-07-16T03:20:44.402Z,19.00
2018-07-16T03:23:13.937Z,19.10
2018-07-16T03:25:43.577Z,19.00
2018-07-16T03:28:12.766Z,19.00
2018-07-16T03:30:41.888Z,19.10
2018-07-16T03:33:11.087Z,19.10
2018-07-16T03:35:40.786Z,19.20
2018-07-16T03:38:10.025Z,19.50
2018-07-16T03:40:39.946Z,19.80
2018-07-16T03:43:09.281Z,19.60
2018-07-16T03:45:38.782Z,19.80
2018-07-16T03:48:08.651Z,19.80
2018-07-16T03:50:38.022Z,20.00
2018-07-16T03:53:07.528Z,20.10
2018-07-16T03:55:37.032Z,19.60
2018-07-16T03:58:06.656Z,19.30
2018-07-16T04:00:37.202Z,19.20
2018-07-16T04:03:07.019Z,19.40
2018-07-16T04:05:36.417Z,19.80
2018-07-16T04:08:06.702Z,20.20
2018-07-16T04:10:36.934Z,20.50
2018-07-16T04:13:06.597Z,20.20
2018-07-16T04:15:35.958Z,20.30
2018-07-16T04:18:10.056Z,20.30
2018-07-16T04:20:39.719Z,20.30
2018-07-16T04:23:08.966Z,20.40
2018-07-16T04:25:38.482Z,20.50
2018-07-16T04:28:09.089Z,20.40
2018-07-16T04:30:38.521Z,20.40
2018-07-16T04:33:08.429Z,20.60
2018-07-16T04:35:38.112Z,20.80
2018-07-16T04:38:07.825Z,20.90
2018-07-16T04:40:37.169Z,21.00
2018-07-16T04:43:06.680Z,21.10
2018-07-16T04:45:36.608Z,21.30
2018-07-16T04:48:05.947Z,21.50
2018-07-16T04:50:35.321Z,21.50
2018-07-16T04:53:05.438Z,21.80
2018-07-16T04:55:34.983Z,21.90
2018-07-16T04:58:05.781Z,22.10
2018-07-16T05:00:35.202Z,22.20
2018-07-16T05:03:04.834Z,22.10
2018-07-16T05:05:34.234Z,22.10
2018-07-16T05:08:03.816Z,22.30
2018-07-16T05:10:33.526Z,22.40
2018-07-16T05:13:03.226Z,22.40
2018-07-16T05:15:32.597Z,22.50
2018-07-16T05:18:02.217Z,22.60
2018-07-16T05:20:31.652Z,22.70
2018-07-16T05:23:01.554Z,22.90
2018-07-16T05:25:31.380Z,23.00
2018-07-16T05:28:01.149Z,22.90
2018-07-16T05:30:30.778Z,23.00
2018-07-16T05:33:00.250Z,23.20
2018-07-16T05:35:30.052Z,23.40
2018-07-16T05:37:59.641Z,23.40
2018-07-16T05:40:29.930Z,23.50
2018-07-16T05:42:59.607Z,23.50
2018-07-16T05:45:28.818Z,23.60
2018-07-16T05:47:58.494Z,23.70
2018-07-16T05:50:27.982Z,23.70
2018-07-16T05:52:57.373Z,23.60
2018-07-16T05:55:26.813Z,23.60
2018-07-16T05:57:56.555Z,23.70
2018-07-16T06:00:26.034Z,23.90
2018-07-16T06:02:56.288Z,23.90
2018-07-16T06:05:25.722Z,24.00
2018-07-16T06:07:55.220Z,24.10
2018-07-16T06:10:24.798Z,24.10
2018-07-16T06:12:54.461Z,24.30
2018-07-16T06:15:23.918Z,24.40
2018-07-16T06:17:53.513Z,24.50
2018-07-16T06:20:22.671Z,24.50
2018-07-16T06:22:52.187Z,24.60
2018-07-16T06:25:21.947Z,24.60
2018-07-16T06:27:52.384Z,24.70
2018-07-16T06:30:21.950Z,24.70
2018-07-16T06:32:51.253Z,24.80
2018-07-16T06:35:20.694Z,24.80
2018-07-16T06:37:50.607Z,24.80
2018-07-16T06:40:20.120Z,24.80
2018-07-16T06:42:49.376Z,24.90
2018-07-16T06:45:18.699Z,25.00
2018-07-16T06:47:47.944Z,25.30
2018-07-16T06:50:17.383Z,25.50
2018-07-16T06:52:46.780Z,25.50
2018-07-16T06:55:16.038Z,25.60
2018-07-16T06:57:45.747Z,25.60
2018-07-16T07:00:15.056Z,25.70
2018-07-16T07:02:44.389Z,25.80
2018-07-16T07:05:14.361Z,25.90
2018-07-16T07:07:43.942Z,26.00
2018-07-16T07:10:14.503Z,26.00
2018-07-16T07:12:43.888Z,26.00
2018-07-16T07:15:14.072Z,26.00
2018-07-16T07:17:44.273Z,26.00
2018-07-16T07:20:14.061Z,26.10
2018-07-16T07:22:43.223Z,26.30
2018-07-16T07:25:12.867Z,26.50
2018-07-16T07:27:42.654Z,26.50
2018-07-16T07:30:12.268Z,26.50
2018-07-16T07:32:41.987Z,26.50
2018-07-16T07:35:11.392Z,26.70
2018-07-16T07:37:40.842Z,26.90
2018-07-16T07:40:10.452Z,26.90
2018-07-16T07:42:39.722Z,26.90
2018-07-16T07:45:09.460Z,27.10
2018-07-16T07:47:39.214Z,27.10
2018-07-16T07:52:38.350Z,27.30
2018-07-16T07:55:08.536Z,27.50
2018-07-16T07:57:38.148Z,27.60
2018-07-16T08:00:07.688Z,27.70
2018-07-16T08:02:37.189Z,27.80
2018-07-16T08:05:06.789Z,28.00
2018-07-16T08:07:36.441Z,27.90
2018-07-16T08:10:05.881Z,28.10
2018-07-16T08:12:35.653Z,28.10
2018-07-16T08:15:06.265Z,28.20
2018-07-16T08:17:35.866Z,28.10
2018-07-16T08:20:05.992Z,28.10
2018-07-16T08:22:35.329Z,28.20
2018-07-16T08:25:05.062Z,28.30
2018-07-16T08:27:34.292Z,28.50
2018-07-16T08:30:03.440Z,28.60
2018-07-16T08:32:33.303Z,28.80
2018-07-16T08:35:02.932Z,28.80
2018-07-16T08:37:32.460Z,29.00
2018-07-16T08:40:01.932Z,29.00
2018-07-16T08:42:31.390Z,29.10
2018-07-16T08:45:00.750Z,28.90
2018-07-16T08:47:30.157Z,29.10
2018-07-16T08:49:59.481Z,29.30
2018-07-16T08:52:28.967Z,29.50
2018-07-16T08:54:58.889Z,29.70
2018-07-16T08:59:57.448Z,29.90
2018-07-16T09:02:26.702Z,29.70
2018-07-16T09:04:56.216Z,29.70
2018-07-16T09:07:25.689Z,29.90
2018-07-16T09:09:55.182Z,30.30
2018-07-16T09:12:24.563Z,30.30
2018-07-16T09:14:54.072Z,30.50
2018-07-16T09:17:23.513Z,30.40
2018-07-16T09:19:53.139Z,30.40
2018-07-16T09:22:22.455Z,30.60
2018-07-16T09:24:52.173Z,30.70
2018-07-16T09:27:21.658Z,30.60
2018-07-16T09:29:50.809Z,30.70
2018-07-16T09:32:20.449Z,30.70
2018-07-16T09:34:50.250Z,30.90
2018-07-16T09:37:19.611Z,30.60
2018-07-16T09:39:49.140Z,31.10
2018-07-16T09:42:18.698Z,31.50
2018-07-16T09:44:48.260Z,31.40
2018-07-16T09:47:17.706Z,31.50
2018-07-16T09:49:47.505Z,31.40
2018-07-16T09:52:16.969Z,31.50
2018-07-16T09:54:46.569Z,31.50
2018-07-16T09:57:15.652Z,31.70
2018-07-16T09:59:51.002Z,31.90
2018-07-16T10:02:20.427Z,32.20
2018-07-16T10:04:49.920Z,32.20
2018-07-16T10:07:19.480Z,32.20
2018-07-16T10:09:48.797Z,32.20
2018-07-16T10:12:18.333Z,32.10
2018-07-16T10:14:47.914Z,32.30
2018-07-16T10:17:17.403Z,32.00
2018-07-16T10:19:46.769Z,32.10
2018-07-16T10:22:15.970Z,32.10
2018-07-16T10:24:46.115Z,32.40
2018-07-16T10:27:15.790Z,32.30
2018-07-16T10:29:45.091Z,32.00
2018-07-16T10:32:14.633Z,31.60
2018-07-16T10:34:44.069Z,32.00
2018-07-16T10:37:13.249Z,32.00
2018-07-16T10:39:43.074Z,32.30
2018-07-16T10:42:12.894Z,32.00
2018-07-16T10:44:42.723Z,32.10
2018-07-16T10:47:12.483Z,32.40
2018-07-16T10:49:41.697Z,32.30
2018-07-16T10:52:11.428Z,31.80
2018-07-16T10:54:41.787Z,32.10
2018-07-16T10:57:11.948Z,32.30
2018-07-16T10:59:42.170Z,31.20
2018-07-16T11:02:12.061Z,32.20
2018-07-16T11:04:41.723Z,32.80
2018-07-16T11:07:11.564Z,32.50
2018-07-16T11:09:41.226Z,32.40
2018-07-16T11:12:10.712Z,31.90
2018-07-16T11:14:39.885Z,32.80
2018-07-16T11:17:09.412Z,32.70
2018-07-16T11:19:38.857Z,32.60
2018-07-16T11:22:08.292Z,32.90
2018-07-16T11:24:37.695Z,33.20
2018-07-16T11:27:07.348Z,33.10
2018-07-16T11:29:36.804Z,33.00
2018-07-16T11:32:06.441Z,33.40
2018-07-16T11:34:36.691Z,33.50
2018-07-16T11:37:06.091Z,33.70
2018-07-16T11:39:35.701Z,33.60
2018-07-16T11:42:05.917Z,33.30
2018-07-16T11:44:35.196Z,33.60
2018-07-16T11:47:04.674Z,33.50
2018-07-16T11:49:34.464Z,33.40
2018-07-16T11:52:03.714Z,33.50
2018-07-16T11:54:33.115Z,33.60
2018-07-16T11:57:02.647Z,33.30
2018-07-16T11:59:32.116Z,33.50
2018-07-16T12:02:01.530Z,33.50
2018-07-16T12:04:30.640Z,33.20
2018-07-16T12:07:00.030Z,32.90
2018-07-16T12:09:29.643Z,32.90
2018-07-16T12:11:59.390Z,33.30
2018-07-16T12:14:29.063Z,33.50
2018-07-16T12:16:58.914Z,33.40
2018-07-16T12:19:28.228Z,33.10
2018-07-16T12:21:57.371Z,33.10
2018-07-16T12:24:26.659Z,32.80
2018-07-16T12:26:56.156Z,32.60
2018-07-16T12:29:25.928Z,32.60
2018-07-16T12:31:55.184Z,32.50
2018-07-16T12:34:24.702Z,32.50
2018-07-16T12:36:54.160Z,32.50
2018-07-16T12:39:23.831Z,32.40
2018-07-16T12:41:53.987Z,32.60
2018-07-16T12:44:23.867Z,32.60
2018-07-16T12:46:53.229Z,32.70
2018-07-16T12:49:23.090Z,32.50
2018-07-16T12:51:52.566Z,32.60
2018-07-16T12:54:21.899Z,32.40
2018-07-16T12:56:51.603Z,32.30
2018-07-16T12:59:21.370Z,32.30
2018-07-16T13:01:50.828Z,32.00
2018-07-16T13:04:20.492Z,31.70
2018-07-16T13:06:49.933Z,31.80
2018-07-16T13:09:19.694Z,31.50
2018-07-16T13:11:49.161Z,31.60
2018-07-16T13:14:18.604Z,31.80
2018-07-16T13:16:48.262Z,31.80
2018-07-16T13:19:17.774Z,31.80
2018-07-16T13:21:47.157Z,31.80
2018-07-16T13:24:16.255Z,31.70
2018-07-16T13:26:45.967Z,31.50
2018-07-16T13:29:15.335Z,31.40
2018-07-16T13:31:44.780Z,31.70
2018-07-16T13:34:14.141Z,31.80
2018-07-16T13:36:43.235Z,31.80
2018-07-16T13:39:12.899Z,31.50
2018-07-16T13:41:42.632Z,31.40
2018-07-16T13:44:12.214Z,31.30
2018-07-16T13:46:41.750Z,31.40
2018-07-16T13:49:11.495Z,31.70
2018-07-16T13:51:40.974Z,31.90
2018-07-16T13:54:10.385Z,31.80
2018-07-16T13:56:39.576Z,31.60
2018-07-16T13:59:09.171Z,31.70
2018-07-16T14:01:38.492Z,31.90
2018-07-16T14:04:07.916Z,31.80
2018-07-16T14:06:37.246Z,32.00
2018-07-16T14:09:08.522Z,32.30
2018-07-16T14:11:38.203Z,31.80
2018-07-16T14:14:07.975Z,31.60
2018-07-16T14:16:37.538Z,31.70
2018-07-16T14:19:06.900Z,31.50
2018-07-16T14:21:36.925Z,31.60
2018-07-16T14:24:06.584Z,31.80
2018-07-16T14:26:36.058Z,31.80
2018-07-16T14:29:05.239Z,31.90
2018-07-16T14:31:34.753Z,31.90
2018-07-16T14:34:05.213Z,32.20
2018-07-16T14:36:35.019Z,32.20
2018-07-16T14:39:06.252Z,32.10
2018-07-16T14:41:35.755Z,32.00
2018-07-16T14:44:05.348Z,32.10
2018-07-16T14:46:35.042Z,32.40
2018-07-16T14:49:04.525Z,32.60
2018-07-16T14:51:34.100Z,32.90
2018-07-16T14:54:03.592Z,32.90
2018-07-16T14:56:33.299Z,32.80
2018-07-16T14:59:02.871Z,32.90
2018-07-16T15:01:32.408Z,32.90
2018-07-16T15:04:01.830Z,33.10
2018-07-16T15:06:31.354Z,33.00
2018-07-16T15:09:00.929Z,33.10
2018-07-16T15:11:33.424Z,33.30
2018-07-16T15:16:31.631Z,33.50
2018-07-16T15:19:01.394Z,33.50
2018-07-16T15:21:31.038Z,33.50
2018-07-16T15:24:00.301Z,33.40
2018-07-16T15:26:29.981Z,33.20
2018-07-16T15:28:59.267Z,33.20
2018-07-16T15:31:29.488Z,33.20
2018-07-16T15:33:58.746Z,33.40
2018-07-16T15:36:28.147Z,33.20
2018-07-16T15:38:57.849Z,33.30
2018-07-16T15:41:27.874Z,33.20
2018-07-16T15:43:57.401Z,33.20
2018-07-16T15:46:26.850Z,33.30
2018-07-16T15:48:56.744Z,32.70
2018-07-16T15:51:25.950Z,32.90
2018-07-16T15:53:55.360Z,32.80
2018-07-16T15:56:24.836Z,32.90
2018-07-16T15:58:54.639Z,33.10
2018-07-16T16:01:23.878Z,33.40
2018-07-16T16:03:53.709Z,33.30
2018-07-16T16:06:23.296Z,33.00
2018-07-16T16:08:52.845Z,33.10
2018-07-16T16:11:23.099Z,32.90
2018-07-16T16:13:52.957Z,32.50
2018-07-16T16:16:22.640Z,32.50
2018-07-16T16:18:52.841Z,32.50
2018-07-16T16:21:23.082Z,32.10
2018-07-16T16:23:52.540Z,31.90
2018-07-16T16:26:21.937Z,31.90
2018-07-16T16:28:51.064Z,31.60
2018-07-16T16:31:20.422Z,31.40
2018-07-16T16:33:50.012Z,31.60
2018-07-16T16:36:19.357Z,31.40
2018-07-16T16:38:48.692Z,31.40
2018-07-16T16:41:18.330Z,31.30
2018-07-16T16:43:47.959Z,31.30
2018-07-16T16:46:17.273Z,31.30
2018-07-16T16:48:46.357Z,31.30
2018-07-16T16:51:15.736Z,31.10
2018-07-16T16:53:45.282Z,30.80
2018-07-16T16:56:14.935Z,30.50
2018-07-16T16:58:44.755Z,30.60
2018-07-16T17:01:14.272Z,30.60
2018-07-16T17:03:43.666Z,30.50
2018-07-16T17:06:13.216Z,30.60
2018-07-16T17:08:43.169Z,30.70
2018-07-16T17:11:12.758Z,30.70
2018-07-16T17:13:42.366Z,30.60
2018-07-16T17:16:12.364Z,30.40
2018-07-16T17:18:42.333Z,30.30
2018-07-16T17:21:12.553Z,30.10
2018-07-16T17:23:42.605Z,30.00
2018-07-16T17:26:12.178Z,30.10
2018-07-16T17:28:41.714Z,29.80
2018-07-16T17:31:11.338Z,29.60
2018-07-16T17:33:40.916Z,29.40
2018-07-16T17:36:10.753Z,29.40
2018-07-16T17:38:40.263Z,29.50
2018-07-16T17:41:09.923Z,29.60
2018-07-16T17:43:39.703Z,29.60
2018-07-16T17:46:09.170Z,29.80
2018-07-16T17:48:38.845Z,29.80
2018-07-16T17:51:09.358Z,29.70
2018-07-16T17:53:39.091Z,29.50
2018-07-16T17:56:08.402Z,29.60
2018-07-16T17:58:38.151Z,29.50
2018-07-16T18:01:08.313Z,29.50
2018-07-16T18:03:37.737Z,29.30
2018-07-16T18:06:07.460Z,29.40
2018-07-16T18:08:37.251Z,29.20
2018-07-16T18:11:07.272Z,29.30
2018-07-16T18:13:36.962Z,29.00
2018-07-16T18:16:06.487Z,28.90
2018-07-16T18:18:35.995Z,28.90
2018-07-16T18:21:05.822Z,29.00
2018-07-16T18:23:35.599Z,29.00
2018-07-16T18:26:05.213Z,28.20
2018-07-16T18:33:33.398Z,27.40
2018-07-16T18:36:03.083Z,27.50
2018-07-16T18:38:32.614Z,27.60
2018-07-16T18:41:02.257Z,27.50
2018-07-16T18:43:31.720Z,27.70
2018-07-16T18:46:01.306Z,27.60
2018-07-16T18:48:30.485Z,27.50
2018-07-16T18:51:00.146Z,27.40
2018-07-16T18:53:29.832Z,27.30
2018-07-16T18:55:59.445Z,27.40
2018-07-16T18:58:29.115Z,27.50
2018-07-16T19:00:58.868Z,27.30
2018-07-16T19:03:28.883Z,27.20
2018-07-16T19:05:58.398Z,27.30
2018-07-16T19:08:27.696Z,27.20
2018-07-16T19:10:57.031Z,27.20
2018-07-16T19:13:26.600Z,27.20
2018-07-16T19:15:55.986Z,27.00
2018-07-16T19:18:25.532Z,27.10
2018-07-16T19:20:54.954Z,27.10
2018-07-16T19:23:24.594Z,26.80
2018-07-16T19:25:54.143Z,26.80
2018-07-16T19:30:52.404Z,26.80
2018-07-16T19:33:22.011Z,26.80
2018-07-16T19:35:51.259Z,26.40
2018-07-16T19:38:21.122Z,26.20
2018-07-16T19:40:50.867Z,26.10
2018-07-16T19:43:20.715Z,26.10
2018-07-16T19:45:50.433Z,26.10
2018-07-16T19:48:19.645Z,26.00
2018-07-16T19:50:49.305Z,26.00
2018-07-16T19:55:47.509Z,25.80
2018-07-16T19:58:17.212Z,25.50
2018-07-16T20:00:46.893Z,25.40
2018-07-16T20:03:16.375Z,25.40
2018-07-16T20:05:46.540Z,25.10
2018-07-16T20:08:16.948Z,25.40
2018-07-16T20:13:15.387Z,24.20
2018-07-16T20:15:45.280Z,24.70
2018-07-16T20:18:14.362Z,24.60
2018-07-16T20:20:55.223Z,24.90
2018-07-16T20:23:24.657Z,24.70
2018-07-16T20:25:55.738Z,24.40
2018-07-16T20:28:25.428Z,24.40
2018-07-16T20:30:55.171Z,24.30
2018-07-16T20:33:24.865Z,23.80
2018-07-16T20:35:54.162Z,23.50
2018-07-16T20:38:24.533Z,23.60
2018-07-16T20:40:54.022Z,23.50
2018-07-16T20:43:23.176Z,23.80
2018-07-16T20:45:53.069Z,23.70
2018-07-16T20:48:22.859Z,23.70
2018-07-16T20:50:52.547Z,23.50
2018-07-16T20:53:22.042Z,23.60
2018-07-16T20:55:51.384Z,23.30
2018-07-16T20:58:21.140Z,23.40
2018-07-16T21:00:50.779Z,23.50
2018-07-16T21:05:49.648Z,23.10
2018-07-16T21:08:18.942Z,22.70
2018-07-16T21:10:48.459Z,22.70
2018-07-16T21:13:18.132Z,22.70
2018-07-16T21:15:47.261Z,22.20
2018-07-16T21:18:16.467Z,22.50
2018-07-16T21:20:46.131Z,22.30
2018-07-16T21:23:15.602Z,22.20
2018-07-16T21:25:45.145Z,22.40
2018-07-16T21:28:14.637Z,22.70
2018-07-16T21:30:44.548Z,22.70
2018-07-16T21:33:14.361Z,22.60
2018-07-16T21:35:43.878Z,22.60
2018-07-16T21:38:13.058Z,22.60
2018-07-16T21:40:42.616Z,22.90
2018-07-16T21:43:12.354Z,22.80
2018-07-16T21:45:41.860Z,22.40
2018-07-16T21:53:09.876Z,22.10
2018-07-16T21:55:39.506Z,21.80
2018-07-16T21:58:08.821Z,21.70
2018-07-16T22:00:38.612Z,21.40
2018-07-16T22:03:08.338Z,21.40
2018-07-16T22:05:37.859Z,21.80
2018-07-16T22:08:07.269Z,21.90
2018-07-16T22:10:36.509Z,21.60
2018-07-16T22:13:06.093Z,21.60
2018-07-16T22:15:35.439Z,21.60
2018-07-16T22:18:04.980Z,21.40
2018-07-16T22:20:34.488Z,21.20
2018-07-16T22:23:03.764Z,21.20
2018-07-16T22:25:33.209Z,21.40
2018-07-16T22:28:02.710Z,21.40
2018-07-16T22:30:32.237Z,21.30
2018-07-16T22:33:01.690Z,21.40
2018-07-16T22:35:31.270Z,21.50
2018-07-16T22:38:00.651Z,21.30
2018-07-16T22:40:30.053Z,21.20
2018-07-16T22:42:59.641Z,21.10
2018-07-16T22:45:29.201Z,21.00
2018-07-16T22:47:58.867Z,20.80
2018-07-16T22:50:28.806Z,20.80
2018-07-16T22:52:58.639Z,20.80
2018-07-16T22:55:27.928Z,20.70
2018-07-16T22:57:57.335Z,20.60
2018-07-16T23:00:26.804Z,20.50
2018-07-16T23:02:56.604Z,20.60
2018-07-16T23:05:25.901Z,20.50
2018-07-16T23:07:55.161Z,20.70
2018-07-16T23:10:25.575Z,21.10
2018-07-16T23:12:55.241Z,20.70
2018-07-16T23:15:24.520Z,20.60
2018-07-16T23:17:54.003Z,20.80
2018-07-16T23:20:23.683Z,20.40
2018-07-16T23:22:56.466Z,20.20
2018-07-16T23:25:25.971Z,20.30
2018-07-16T23:27:55.363Z,20.40
2018-07-16T23:30:24.527Z,20.10
2018-07-16T23:32:54.012Z,20.30
2018-07-16T23:35:23.990Z,20.20
2018-07-16T23:37:53.171Z,20.10
2018-07-16T23:40:23.322Z,20.20
2018-07-16T23:42:54.157Z,20.10
2018-07-16T23:45:23.535Z,20.20
2018-07-16T23:47:53.100Z,20.40
2018-07-16T23:50:22.754Z,20.70
2018-07-16T23:52:52.027Z,20.50
2018-07-16T23:55:21.301Z,20.30
2018-07-16T23:57:50.913Z,19.90
